Flugplatz Marl-Loemühle

Für EDLM sind keine METAR/TAF Berichte vorhanden.
Es werden die Flugwettermeldungen vom Flugplatz Dortmund in 34 km Entfernung angezeigt.

Bericht für EDLW

vom 07.12. um 18:20 UTC

Wind 11 kt aus 140°

Sichtweite 10 km oder mehr

gute Sicht, keine Wolken < 5000 ft, keine CB, keine Wettererscheinungen (CAVOK)

Temperatur 3.0°C

Taupunkt -1.0°C

Luftfeuchtigkeit 75%

Luftdruck 1003 hPa

EDLW 071820Z 14011KT CAVOK 03/M01 Q1003

Prognose für EDLW

vom 07.12. um 17:00 UTC

Zwischen 18:00 UTC und 19:00 UTC

Wind 10 kt aus 160°

Sichtweite 10 km oder mehr

keine signifikanten Wettererscheinungen

keine Wolken


Zwischen 19:00 und 22:00 UTC übergehend zu

Wind 15 kt aus 160° in Böen 25 kt

Sichtweite 10 km oder mehr

keine signifikanten Wettererscheinungen

keine Wolken


Zwischen 22:00 UTC und 03:00 UTC zeitweise mit einer Wahrscheinlichkeit von 30%

Wind 20 kt aus 170° in Böen 30 kt

Sichtweite 4500 m

Regen

Schnee


Am 08.12. zwischen 03:00 und 06:00 UTC übergehend zu

Wind 10 kt aus 180°

Sichtweite 10 km oder mehr

keine signifikanten Wettererscheinungen

keine Wolken


Am 08.12. zwischen 13:00 und 16:00 UTC übergehend zu

Wind 4 kt aus 180°

Sichtweite 10 km oder mehr

keine signifikanten Wettererscheinungen

keine Wolken

TAF EDLW 071700Z 0718/0818 16010KT CAVOK BECMG 0719/0722 16015G25KT PROB30 TEMPO 0722/0803 17020G30KT 4500 RASN BECMG 0803/0806 18010KT BECMG 0813/0816 18004KT
Impressum